Time;durP1;ratioP1;P1;durP2;ratioP2;P2;SDS_P1;SDS_P2;PMS_P1;PMS_P2;Temp;Humidity;BMP_temperature;BMP_pressure;BME280_temperature;BME280_humidity;BME280_pressure;Samples;Min_cycle;Max_cycle;Signal;HPM_P1;HPM_P2
2022/06/04 07:30:48;;;;;;;4.47;3.10;;;;;;;31.94;88.56;100514.90;1759217;80;22760;-59
2022/06/04 07:33:15;;;;;;;6.08;3.30;;;;;;;32.18;80.12;100507.05;1702546;82;21062;-59
2022/06/04 07:35:50;;;;;;;5.08;3.20;;;;;;;32.28;75.13;100515.89;1723124;83;21245;-56
2022/06/04 07:38:18;;;;;;;4.10;3.40;;;;;;;32.06;76.46;100510.98;1721456;82;20931;-56
2022/06/04 07:40:45;;;;;;;5.50;3.20;;;;;;;31.96;82.63;100512.66;1724331;82;21493;-56
2022/06/04 07:43:12;;;;;;;3.80;2.80;;;;;;;32.03;76.86;100517.01;1725422;82;21430;-59
2022/06/04 07:45:40;;;;;;;5.28;3.12;;;;;;;31.80;81.07;100510.20;1725825;82;21224;-55
2022/06/04 07:48:08;;;;;;;4.62;2.80;;;;;;;31.90;79.51;100507.22;1725957;83;21319;-56
2022/06/04 07:50:35;;;;;;;4.22;2.70;;;;;;;32.21;75.85;100510.45;1725770;82;21026;-55
2022/06/04 07:53:02;;;;;;;4.83;3.00;;;;;;;32.56;74.44;100503.60;1725301;83;21570;-57
2022/06/04 07:55:30;;;;;;;3.80;2.80;;;;;;;32.89;69.96;100509.15;1726184;81;21795;-55
2022/06/04 07:57:57;;;;;;;5.45;3.05;;;;;;;32.71;65.45;100506.31;1725966;82;21038;-55
2022/06/04 08:00:24;;;;;;;5.25;3.55;;;;;;;32.28;71.29;100511.84;1726105;81;21239;-55
2022/06/04 08:02:52;;;;;;;5.30;3.20;;;;;;;32.32;76.67;100508.20;1724795;81;21002;-61
2022/06/04 08:05:20;;;;;;;4.22;2.72;;;;;;;32.45;69.56;100508.56;1718382;82;21129;-58
2022/06/04 08:07:47;;;;;;;10.13;3.90;;;;;;;32.44;68.37;100515.09;1725781;81;21377;-55
2022/06/04 08:10:15;;;;;;;4.37;2.83;;;;;;;32.57;70.73;100509.22;1724332;82;21051;-58
2022/06/04 08:12:52;;;;;;;4.22;2.50;;;;;;;32.58;64.85;100513.53;1725431;82;20998;-64
2022/06/04 08:15:19;;;;;;;6.20;2.50;;;;;;;32.58;64.70;100511.36;1703197;82;21125;-59
2022/06/04 08:17:48;;;;;;;4.25;3.12;;;;;;;32.64;65.83;100518.95;1725797;82;20991;-58
2022/06/04 08:20:15;;;;;;;5.70;3.72;;;;;;;32.75;66.17;100518.03;1725788;82;21011;-55
2022/06/04 08:22:43;;;;;;;6.08;3.90;;;;;;;32.72;65.62;100515.20;1714217;82;21474;-56
2022/06/04 08:25:10;;;;;;;6.15;4.72;;;;;;;32.57;63.28;100513.84;1725619;82;21500;-56
2022/06/04 08:27:39;;;;;;;6.30;5.25;;;;;;;32.61;69.08;100508.02;1735134;81;21053;-60
2022/06/04 08:30:08;;;;;;;6.42;4.12;;;;;;;32.65;65.30;100502.20;1728551;82;21406;-55
2022/06/04 08:32:36;;;;;;;5.10;3.75;;;;;;;32.67;66.93;100498.63;1728338;82;21010;-55
2022/06/04 08:35:04;;;;;;;3.95;3.12;;;;;;;32.73;62.73;100489.77;1728027;82;21110;-63
2022/06/04 08:37:31;;;;;;;4.45;3.42;;;;;;;32.50;62.25;100500.84;1714662;81;22290;-57
2022/06/04 08:40:00;;;;;;;8.55;4.00;;;;;;;32.38;65.45;100506.11;1727989;82;21105;-55
2022/06/04 08:42:41;;;;;;;4.90;3.30;;;;;;;32.37;64.71;100500.48;1725428;82;21066;-55
2022/06/04 08:45:10;;;;;;;5.72;3.17;;;;;;;32.37;66.03;100499.92;1707712;81;21128;-56
2022/06/04 08:47:41;;;;;;;5.15;2.90;;;;;;;32.28;66.03;100492.44;1727374;82;21058;-55
2022/06/04 08:50:23;;;;;;;6.35;3.17;;;;;;;32.40;71.44;100502.57;1728378;82;21904;-65
2022/06/04 08:52:54;;;;;;;6.40;3.58;;;;;;;32.29;67.36;100498.62;1728182;82;21154;-56
2022/06/04 08:58:50;;;;;;;5.08;3.05;;;;;;;32.46;68.97;100498.56;1725967;82;20975;-64
2022/06/04 09:01:25;;;;;;;5.47;3.42;;;;;;;32.49;65.40;100499.27;1723994;82;20948;-56
2022/06/04 09:04:20;;;;;;;4.62;4.08;;;;;;;32.73;64.89;100504.63;1728023;82;22377;-57
2022/06/04 09:07:06;;;;;;;7.53;4.60;;;;;;;32.68;61.34;100495.59;1723406;81;21086;-55
2022/06/04 09:09:38;;;;;;;5.62;3.50;;;;;;;32.37;63.93;100505.88;1733766;81;20975;-60
2022/06/04 09:12:22;;;;;;;6.12;3.52;;;;;;;32.40;68.40;100497.17;1732442;81;21065;-56
2022/06/04 09:15:07;;;;;;;11.35;3.77;;;;;;;32.62;67.26;100502.31;1733588;81;21097;-57
2022/06/04 09:17:42;;;;;;;3.75;3.22;;;;;;;32.79;63.73;100504.12;1733138;81;21449;-57
2022/06/04 09:20:39;;;;;;;3.90;3.02;;;;;;;32.48;61.42;100513.88;1733236;81;21035;-55
2022/06/04 09:23:13;;;;;;;4.22;2.90;;;;;;;32.16;67.08;100512.52;1726094;81;21461;-63
2022/06/04 09:26:16;;;;;;;4.53;2.95;;;;;;;32.48;62.27;100500.95;1721715;81;21094;-56
2022/06/04 09:28:52;;;;;;;5.37;3.10;;;;;;;32.55;63.40;100504.72;1732898;81;21007;-64
2022/06/04 09:31:39;;;;;;;6.80;3.52;;;;;;;32.88;63.42;100504.05;1721552;81;21222;-58
2022/06/04 09:34:24;;;;;;;6.75;3.25;;;;;;;32.99;58.23;100499.88;1729403;81;21732;-61
2022/06/04 09:36:52;;;;;;;5.20;3.10;;;;;;;32.98;59.57;100501.02;1723463;81;20983;-68
2022/06/04 09:39:30;;;;;;;7.62;3.00;;;;;;;32.92;60.08;100499.58;1721043;81;21504;-57
2022/06/04 09:42:02;;;;;;;7.35;3.67;;;;;;;32.77;60.55;100507.72;1732838;81;20941;-56
2022/06/04 09:44:32;;;;;;;4.90;3.50;;;;;;;32.44;60.35;100507.55;1733841;81;21180;-56
2022/06/04 09:47:10;;;;;;;5.65;3.27;;;;;;;32.06;62.35;100507.49;1733159;81;20975;-57
2022/06/04 09:49:44;;;;;;;6.30;3.42;;;;;;;31.87;65.26;100503.81;1733024;81;21079;-65
2022/06/04 09:52:29;;;;;;;5.58;3.10;;;;;;;31.69;65.62;100497.05;1733082;82;21808;-55
2022/06/04 09:54:58;;;;;;;4.95;3.27;;;;;;;31.64;65.01;100503.97;1724625;81;21069;-55
2022/06/04 09:57:31;;;;;;;5.17;3.42;;;;;;;31.50;66.82;100492.55;1709868;82;21136;-58
2022/06/04 09:59:59;;;;;;;4.50;3.30;;;;;;;31.35;70.50;100495.73;1733317;81;20999;-55
2022/06/04 10:02:27;;;;;;;6.17;3.22;;;;;;;31.39;70.84;100489.94;1733274;81;20971;-55
2022/06/04 10:05:06;;;;;;;3.75;2.90;;;;;;;31.44;70.65;100493.81;1733434;81;22056;-58
2022/06/04 10:07:38;;;;;;;6.20;3.25;;;;;;;31.47;70.20;100491.28;1733735;81;21066;-57
2022/06/04 10:10:11;;;;;;;;;;;;;;;31.25;68.02;100486.02;1729538;81;21077;-58
2022/06/04 10:15:38;;;;;;;6.80;3.75;;;;;;;30.88;73.34;100492.80;1733456;81;21454;-57
2022/06/04 10:18:22;;;;;;;3.90;3.27;;;;;;;30.77;76.43;100477.50;1731525;81;21559;-65
2022/06/04 10:20:56;;;;;;;5.00;3.52;;;;;;;30.65;77.83;100474.03;1723682;81;21050;-56
2022/06/04 10:23:23;;;;;;;4.08;3.30;;;;;;;30.63;84.67;100473.53;1731630;81;22178;-64
2022/06/04 10:26:05;;;;;;;5.67;3.65;;;;;;;30.94;77.63;100468.64;1727288;81;20978;-56
2022/06/04 10:28:53;;;;;;;6.12;3.60;;;;;;;31.35;77.64;100464.75;1733781;82;21019;-56
2022/06/04 10:31:48;;;;;;;5.87;3.72;;;;;;;31.58;71.37;100469.41;1728534;81;20923;-56
2022/06/04 10:34:29;;;;;;;6.37;3.35;;;;;;;31.67;70.90;100470.17;1733833;81;20999;-56
2022/06/04 10:37:32;;;;;;;5.22;3.50;;;;;;;31.48;69.38;100466.47;1713880;81;21258;-56
2022/06/04 10:40:26;;;;;;;4.78;3.37;;;;;;;31.58;76.50;100462.11;1732919;81;21030;-66
2022/06/04 10:43:09;;;;;;;5.17;3.83;;;;;;;31.53;65.26;100461.50;1732805;81;21105;-56
2022/06/04 10:45:47;;;;;;;8.28;3.75;;;;;;;31.38;70.39;100461.43;1732779;81;20994;-64
2022/06/04 10:49:04;;;;;;;4.20;3.22;;;;;;;31.44;69.53;100460.95;1733765;81;21121;-56
2022/06/04 10:51:54;;;;;;;4.08;3.00;;;;;;;31.44;70.15;100465.53;1734383;81;22289;-56
2022/06/04 10:54:54;;;;;;;4.42;3.02;;;;;;;31.23;70.28;100456.72;1733819;81;21047;-66
2022/06/04 10:57:51;;;;;;;5.37;3.27;;;;;;;31.21;72.22;100455.44;1734588;82;20947;-58
2022/06/04 11:00:31;;;;;;;5.00;3.33;;;;;;;31.23;75.18;100455.93;1716454;81;20961;-58
2022/06/04 11:03:12;;;;;;;5.33;3.30;;;;;;;31.48;70.45;100453.00;1733901;81;21007;-56
2022/06/04 11:05:45;;;;;;;4.92;3.17;;;;;;;31.56;70.32;100449.53;1734228;81;22089;-56
2022/06/04 11:08:32;;;;;;;4.42;3.47;;;;;;;31.59;71.70;100443.48;1715181;82;21010;-56
2022/06/04 11:11:21;;;;;;;4.67;3.65;;;;;;;31.84;76.53;100453.19;1682761;82;21265;-63
2022/06/04 11:13:54;;;;;;;4.95;3.20;;;;;;;32.11;60.81;100446.08;1715670;82;21690;-57
2022/06/04 11:16:28;;;;;;;4.58;4.08;;;;;;;31.90;62.73;100453.30;1728780;81;21070;-57
2022/06/04 11:19:12;;;;;;;4.20;3.52;;;;;;;31.84;67.09;100449.15;1733520;81;21731;-57
2022/06/04 11:22:02;;;;;;;5.20;3.37;;;;;;;31.77;62.02;100437.51;1733446;81;21627;-56
2022/06/04 11:24:43;;;;;;;5.70;3.77;;;;;;;31.60;69.65;100451.82;1733492;81;21022;-57
2022/06/04 11:27:18;;;;;;;4.25;3.27;;;;;;;31.94;70.75;100440.76;1721172;81;21006;-58
2022/06/04 11:29:46;;;;;;;5.85;3.75;;;;;;;32.44;63.92;100439.53;1733561;82;21934;-64
2022/06/04 11:32:51;;;;;;;4.55;3.02;;;;;;;32.67;59.32;100440.03;1723169;81;21236;-56
2022/06/04 11:35:44;;;;;;;4.05;2.98;;;;;;;32.63;60.04;100436.41;1733105;81;21489;-56
2022/06/04 11:38:40;;;;;;;6.08;3.40;;;;;;;32.16;63.74;100440.52;1713979;82;21545;-63
2022/06/04 11:41:15;;;;;;;4.78;3.47;;;;;;;31.47;59.26;100439.30;1732559;81;21115;-56
2022/06/04 11:44:14;;;;;;;5.75;3.65;;;;;;;30.53;67.83;100433.45;1721370;81;21043;-63
2022/06/04 11:47:15;;;;;;;6.80;4.55;;;;;;;30.16;73.19;100426.16;1721215;81;21204;-56
2022/06/04 11:50:04;;;;;;;5.60;3.58;;;;;;;30.15;81.18;100422.39;1727609;81;21058;-56
2022/06/04 11:52:35;;;;;;;7.40;3.70;;;;;;;30.33;76.35;100419.25;1731316;81;21072;-56
2022/06/04 11:55:29;;;;;;;5.00;3.83;;;;;;;30.26;75.65;100417.00;1732799;81;21453;-65
2022/06/04 11:58:02;;;;;;;6.15;3.50;;;;;;;30.26;78.07;100411.07;1726584;81;21512;-56
2022/06/04 12:00:33;;;;;;;6.45;3.85;;;;;;;30.12;79.55;100410.37;1733180;81;21135;-58
2022/06/04 12:03:09;;;;;;;5.78;4.28;;;;;;;29.96;86.33;100415.90;1733269;81;21455;-55
2022/06/04 12:06:17;;;;;;;9.93;5.42;;;;;;;29.85;89.59;100410.55;1733333;81;21532;-57
2022/06/04 12:08:57;;;;;;;6.83;4.45;;;;;;;29.97;83.76;100406.75;1722266;81;21055;-66
2022/06/04 12:11:38;;;;;;;6.50;3.80;;;;;;;30.23;80.46;100409.55;1730517;81;22037;-55
2022/06/04 12:14:18;;;;;;;5.90;3.50;;;;;;;30.18;77.91;100406.46;1722651;82;21982;-56
2022/06/04 12:17:17;;;;;;;4.53;3.55;;;;;;;30.04;82.56;100401.70;1697495;82;20970;-56
2022/06/04 12:25:42;;;;;;;4.78;4.28;;;;;;;30.35;80.28;100400.92;1733206;81;20998;-58
2022/06/04 12:28:24;;;;;;;4.67;3.95;;;;;;;30.51;77.43;100400.72;1732837;82;22323;-56
2022/06/04 12:30:51;;;;;;;7.17;4.22;;;;;;;30.42;73.61;100407.95;1709798;82;21598;-54
2022/06/04 12:33:41;;;;;;;4.72;3.75;;;;;;;30.03;75.85;100398.78;1707887;82;20964;-57
2022/06/04 12:36:10;;;;;;;6.47;3.83;;;;;;;29.85;83.06;100401.93;1702764;82;21435;-56
2022/06/04 12:38:44;;;;;;;5.60;3.95;;;;;;;29.91;81.37;100398.57;1733123;81;21066;-58
2022/06/04 12:41:19;;;;;;;4.10;3.50;;;;;;;29.87;80.98;100390.89;1715269;82;21558;-55
2022/06/04 12:44:06;;;;;;;4.83;3.30;;;;;;;29.84;87.42;100394.19;1722348;81;21528;-57
2022/06/04 12:46:33;;;;;;;5.12;3.45;;;;;;;29.88;80.34;100399.19;1731580;81;21086;-62
2022/06/04 12:49:14;;;;;;;4.67;3.22;;;;;;;29.52;78.50;100400.07;1734000;82;21371;-54
2022/06/04 12:51:59;;;;;;;6.10;3.27;;;;;;;29.24;79.52;100394.80;1715820;82;21090;-55
2022/06/04 12:54:54;;;;;;;5.60;3.15;;;;;;;29.03;88.27;100385.66;1731027;81;21841;-56
2022/06/04 12:57:48;;;;;;;5.78;3.10;;;;;;;29.13;89.99;100384.05;1733510;81;21011;-56
2022/06/04 13:00:33;;;;;;;6.20;2.90;;;;;;;29.09;87.31;100385.24;1733466;81;21110;-64
2022/06/04 13:03:13;;;;;;;3.50;2.80;;;;;;;28.90;81.75;100374.36;1729198;82;21628;-56
2022/06/04 13:06:04;;;;;;;4.95;3.10;;;;;;;28.79;88.45;100366.56;1721850;81;21894;-63
2022/06/04 13:08:53;;;;;;;3.87;2.47;;;;;;;28.90;86.56;100367.66;1727172;81;21944;-57
2022/06/04 13:11:38;;;;;;;3.22;2.40;;;;;;;28.96;90.27;100369.14;1728178;81;20999;-66
2022/06/04 13:14:50;;;;;;;4.08;2.60;;;;;;;29.06;88.47;100363.58;1733937;81;21433;-66
2022/06/04 13:17:43;;;;;;;4.55;2.98;;;;;;;29.18;91.57;100363.82;1720315;81;21097;-57
2022/06/04 13:20:36;;;;;;;4.10;2.33;;;;;;;29.20;84.76;100358.14;1733659;81;21560;-65
2022/06/04 13:23:15;;;;;;;4.30;3.22;;;;;;;29.25;83.37;100360.16;1713745;81;21216;-57
2022/06/04 13:26:02;;;;;;;5.05;3.10;;;;;;;29.11;80.81;100355.95;1733482;81;20994;-58
2022/06/04 13:28:41;;;;;;;6.03;2.52;;;;;;;28.86;81.00;100350.81;1728984;82;21035;-66
2022/06/04 13:31:23;;;;;;;4.05;2.55;;;;;;;28.81;87.54;100350.94;1733013;82;21054;-55
2022/06/04 13:33:52;;;;;;;4.62;2.70;;;;;;;28.79;86.62;100357.17;1723965;81;21941;-56
2022/06/04 13:36:29;;;;;;;4.77;2.63;;;;;;;28.70;86.51;100346.90;1731668;82;20927;-55
2022/06/04 13:38:59;;;;;;;5.15;3.00;;;;;;;28.65;89.44;100344.34;1731833;82;21649;-66
2022/06/04 13:44:32;;;;;;;4.90;2.90;;;;;;;28.53;93.96;100335.47;1709301;83;21136;-55
2022/06/04 13:47:15;;;;;;;6.03;3.00;;;;;;;28.57;92.93;100331.64;1717500;82;21065;-55
2022/06/04 13:49:46;;;;;;;4.03;2.60;;;;;;;28.58;93.46;100323.28;1712020;82;22152;-55
2022/06/04 13:52:19;;;;;;;3.62;2.60;;;;;;;28.64;90.41;100333.37;1718375;83;20970;-63
2022/06/04 13:54:59;;;;;;;4.08;2.62;;;;;;;28.61;92.86;100329.95;1713838;82;21022;-59
2022/06/04 13:57:43;;;;;;;3.98;2.98;;;;;;;28.60;96.82;100322.97;1719956;83;20951;-55
2022/06/04 14:00:18;;;;;;;5.60;3.00;;;;;;;28.50;100.00;100325.89;1708350;83;21126;-56
2022/06/04 14:02:46;;;;;;;4.65;2.70;;;;;;;28.63;98.65;100330.42;1708629;83;21277;-55
2022/06/04 14:08:22;;;;;;;4.83;2.77;;;;;;;28.53;94.66;100318.59;1741674;81;21017;-56
2022/06/04 14:11:15;;;;;;;4.42;2.85;;;;;;;28.35;99.13;100320.27;1719244;82;20986;-64
2022/06/04 14:14:15;;;;;;;4.35;2.60;;;;;;;28.27;98.96;100311.60;1704674;82;21524;-57
2022/06/04 14:17:33;;;;;;;5.00;3.05;;;;;;;28.14;100.00;100304.59;1718227;83;21550;-56
2022/06/04 14:20:27;;;;;;;9.05;3.37;;;;;;;27.96;100.00;100306.04;1688994;82;21899;-56
2022/06/04 14:23:41;;;;;;;4.92;3.00;;;;;;;27.67;100.00;100293.70;1720934;82;21494;-56
2022/06/04 14:26:31;;;;;;;4.12;3.02;;;;;;;27.59;100.00;100301.88;1711517;83;21018;-58
2022/06/04 14:29:08;;;;;;;4.80;2.62;;;;;;;27.43;100.00;100290.38;1714119;83;21885;-58
2022/06/04 14:32:01;;;;;;;6.30;3.25;;;;;;;27.29;100.00;100295.17;1739162;81;21027;-57
2022/06/04 14:34:35;;;;;;;4.80;2.60;;;;;;;27.20;100.00;100294.27;1662114;81;21507;-56
2022/06/04 14:37:04;;;;;;;6.27;2.83;;;;;;;27.09;100.00;100287.47;1747261;80;20984;-65
2022/06/04 14:39:36;;;;;;;4.77;2.90;;;;;;;26.92;100.00;100283.97;1770939;80;22146;-61
2022/06/04 14:42:17;;;;;;;4.42;2.67;;;;;;;26.88;100.00;100281.08;1732859;82;22434;-55
2022/06/04 14:45:03;;;;;;;5.58;3.00;;;;;;;26.89;100.00;100279.98;1726559;82;21154;-66
2022/06/04 14:48:05;;;;;;;4.33;2.30;;;;;;;27.02;100.00;100287.04;1736256;80;21603;-55
2022/06/04 14:50:51;;;;;;;4.43;2.47;;;;;;;27.09;100.00;100281.56;1732298;80;21918;-55
2022/06/04 14:53:19;;;;;;;3.70;2.60;;;;;;;27.20;100.00;100281.41;1747629;80;21055;-55
2022/06/04 14:56:12;;;;;;;5.93;2.70;;;;;;;27.28;100.00;100285.56;1747344;80;21496;-56
2022/06/04 14:59:00;;;;;;;5.90;2.30;;;;;;;27.26;100.00;100282.38;1747248;81;21919;-58
2022/06/04 15:01:53;;;;;;;5.15;2.55;;;;;;;27.23;100.00;100284.30;1709648;82;21102;-56
2022/06/04 15:05:02;;;;;;;3.17;2.20;;;;;;;27.20;100.00;100280.89;1698871;82;21060;-56
2022/06/04 15:08:02;;;;;;;5.00;2.50;;;;;;;27.15;100.00;100281.74;1714002;81;21435;-56
2022/06/04 15:10:59;;;;;;;7.58;3.10;;;;;;;27.18;100.00;100273.69;1746449;81;21284;-58
2022/06/04 15:14:01;;;;;;;3.25;2.60;;;;;;;27.23;100.00;100280.28;1746850;82;21173;-58
2022/06/04 15:16:56;;;;;;;5.22;3.33;;;;;;;27.20;100.00;100278.21;1728176;80;21027;-55
2022/06/04 15:19:45;;;;;;;5.20;2.77;;;;;;;27.03;100.00;100275.24;1725601;82;22028;-56
2022/06/04 15:22:45;;;;;;;8.37;2.87;;;;;;;26.90;100.00;100279.47;1747164;81;21088;-56
2022/06/04 15:25:48;;;;;;;5.00;2.93;;;;;;;26.76;100.00;100284.74;1742943;82;21394;-57
2022/06/04 15:34:20;;;;;;;7.17;3.07;;;;;;;26.56;100.00;100281.83;1742829;80;21017;-57
2022/06/04 15:37:01;;;;;;;3.42;2.35;;;;;;;26.40;100.00;100287.08;1737127;82;20969;-65
2022/06/04 15:39:36;;;;;;;5.12;2.45;;;;;;;26.33;100.00;100279.44;1745418;80;21525;-56
2022/06/04 15:42:19;;;;;;;5.03;2.63;;;;;;;26.36;100.00;100280.72;1765095;80;20998;-57
2022/06/04 15:45:00;;;;;;;4.07;2.57;;;;;;;26.31;100.00;100277.58;1738261;82;21410;-65
2022/06/04 15:47:33;;;;;;;5.07;2.60;;;;;;;26.16;100.00;100279.11;1736163;80;20994;-56
2022/06/04 15:55:59;;;;;;;;;;;;;;;25.78;100.00;100264.33;1700064;84;21030;-57
2022/06/04 15:58:37;;;;;;;5.00;2.50;;;;;;;25.71;100.00;100265.17;1729697;82;20275;-57
2022/06/04 16:01:34;;;;;;;6.77;2.80;;;;;;;25.62;100.00;100269.00;1724878;82;21097;-66
2022/06/04 16:04:16;;;;;;;3.80;2.50;;;;;;;25.60;100.00;100263.69;1739586;82;21309;-55
2022/06/04 16:07:04;;;;;;;6.27;2.60;;;;;;;25.55;100.00;100266.41;1738751;81;21439;-56
2022/06/04 16:09:33;;;;;;;3.80;2.77;;;;;;;25.45;100.00;100264.08;1735063;80;21302;-57
2022/06/04 16:12:39;;;;;;;5.13;2.80;;;;;;;25.36;100.00;100263.11;1747892;82;21015;-65
2022/06/04 16:15:32;;;;;;;4.47;2.83;;;;;;;25.28;100.00;100263.73;1722739;80;21259;-55
2022/06/04 16:18:28;;;;;;;4.37;2.77;;;;;;;25.21;100.00;100261.92;1739321;82;21537;-63
2022/06/04 16:21:17;;;;;;;4.73;3.00;;;;;;;25.22;100.00;100260.84;1737485;82;21054;-57
2022/06/04 16:24:10;;;;;;;5.43;3.10;;;;;;;25.17;100.00;100259.02;1747448;82;21226;-56
2022/06/04 16:26:50;;;;;;;4.13;2.80;;;;;;;25.13;100.00;100254.52;1747064;80;21075;-56
2022/06/04 16:29:35;;;;;;;4.83;3.05;;;;;;;25.10;100.00;100264.41;1747737;82;21082;-56
2022/06/04 16:32:16;;;;;;;5.53;2.90;;;;;;;25.09;100.00;100258.80;1749746;81;21062;-57
2022/06/04 16:35:07;;;;;;;5.83;2.87;;;;;;;24.89;100.00;100260.55;1735127;81;21078;-58
2022/06/04 16:37:40;;;;;;;6.90;3.35;;;;;;;24.79;100.00;100261.95;1750618;80;21936;-56
2022/06/04 16:41:53;;;;;;;5.63;4.13;;;;;;;24.71;100.00;100257.20;1754962;80;21007;-65
2022/06/04 16:42:55;;;;;;;5.17;3.60;;;;;;;24.55;100.00;100255.18;1750324;81;21093;-57
2022/06/04 16:45:33;;;;;;;;;;;;;;;24.46;100.00;100250.95;1734047;81;20975;-57
2022/06/04 16:48:06;;;;;;;4.77;3.03;;;;;;;24.41;100.00;100246.20;1714835;83;20124;-56
2022/06/04 16:50:34;;;;;;;5.60;3.10;;;;;;;24.28;100.00;100253.70;1726476;82;23213;-65
2022/06/04 16:53:03;;;;;;;6.50;3.27;;;;;;;24.20;100.00;100244.92;1721352;82;21461;-56
2022/06/04 16:55:32;;;;;;;6.07;2.60;;;;;;;24.06;100.00;100248.47;1728577;82;21047;-57
2022/06/04 16:58:01;;;;;;;6.85;2.90;;;;;;;23.93;100.00;100241.31;1723249;82;21395;-56
2022/06/04 17:00:42;;;;;;;4.57;2.47;;;;;;;23.89;100.00;100242.12;1728726;81;21007;-56
2022/06/04 17:03:41;;;;;;;6.13;3.10;;;;;;;23.78;100.00;100246.14;1729302;82;21409;-56
2022/06/04 17:06:23;;;;;;;4.00;2.53;;;;;;;23.70;100.00;100240.59;1723598;81;20994;-66
2022/06/04 17:09:40;;;;;;;3.73;3.00;;;;;;;23.62;100.00;100243.77;1717645;82;21073;-57
2022/06/04 17:12:21;;;;;;;5.83;3.17;;;;;;;23.49;100.00;100247.27;1728177;82;21041;-57
2022/06/04 17:15:37;;;;;;;3.77;3.03;;;;;;;23.40;100.00;100247.53;1723016;82;21004;-57
2022/06/04 17:18:50;;;;;;;4.67;2.63;;;;;;;23.33;100.00;100252.32;1720825;82;21254;-58
2022/06/04 17:21:47;;;;;;;4.53;3.03;;;;;;;23.22;100.00;100254.72;1712075;83;21301;-55
2022/06/04 17:24:29;;;;;;;8.57;2.53;;;;;;;23.12;100.00;100246.23;1710332;83;21272;-55
2022/06/04 17:27:07;;;;;;;5.00;2.90;;;;;;;23.02;100.00;100256.32;1738193;81;21000;-55
2022/06/04 17:30:01;;;;;;;5.60;3.03;;;;;;;22.96;100.00;100248.63;1730901;82;21109;-64
2022/06/04 17:32:55;;;;;;;4.27;3.00;;;;;;;22.93;100.00;100256.59;1733909;81;21155;-55
2022/06/04 17:35:36;;;;;;;4.73;3.17;;;;;;;22.89;100.00;100258.16;1735803;81;20895;-56
2022/06/04 17:38:26;;;;;;;;;;;;;;;22.89;100.00;100257.36;1736829;81;21094;-54
2022/06/04 17:41:00;;;;;;;;;;;;;;;22.91;100.00;100257.37;1735768;81;20252;-58
2022/06/04 17:43:27;;;;;;;6.73;3.17;;;;;;;22.81;100.00;100261.34;1721335;81;20130;-57
2022/06/04 17:45:54;;;;;;;5.40;3.17;;;;;;;22.79;100.00;100271.42;1732974;81;21141;-58
2022/06/04 17:48:22;;;;;;;3.90;2.80;;;;;;;22.63;100.00;100266.62;1721757;81;21430;-67
2022/06/04 17:50:49;;;;;;;5.17;3.27;;;;;;;22.56;100.00;100258.89;1733627;81;21008;-58
2022/06/04 17:53:16;;;;;;;5.10;2.70;;;;;;;22.52;100.00;100263.13;1733409;81;21560;-61
2022/06/04 17:55:44;;;;;;;5.63;3.00;;;;;;;22.50;100.00;100273.23;1733800;81;21588;-67
2022/06/04 17:58:12;;;;;;;5.70;3.00;;;;;;;22.40;100.00;100269.22;1728393;81;20978;-57
2022/06/04 18:00:41;;;;;;;7.93;2.70;;;;;;;22.39;100.00;100271.61;1726817;81;21467;-58
2022/06/04 18:03:09;;;;;;;4.57;3.40;;;;;;;22.36;100.00;100278.77;1730722;81;20967;-57
2022/06/04 18:05:37;;;;;;;5.17;3.60;;;;;;;22.32;100.00;100277.69;1722007;81;21046;-59
2022/06/04 18:08:05;;;;;;;5.57;3.50;;;;;;;22.27;100.00;100285.62;1729241;81;20991;-58
2022/06/04 18:10:33;;;;;;;4.57;3.47;;;;;;;22.23;100.00;100289.32;1731349;81;21062;-57
2022/06/04 18:13:04;;;;;;;5.27;3.10;;;;;;;22.14;100.00;100291.41;1733515;81;20963;-54
2022/06/04 18:15:31;;;;;;;4.80;3.60;;;;;;;22.12;100.00;100291.63;1733618;81;21481;-55
2022/06/04 18:18:00;;;;;;;6.83;3.57;;;;;;;22.13;100.00;100299.09;1732798;81;20986;-56
2022/06/04 18:20:27;;;;;;;8.90;4.60;;;;;;;22.10;100.00;100297.73;1720354;82;21062;-64
2022/06/04 18:22:55;;;;;;;6.57;4.23;;;;;;;22.06;100.00;100298.78;1725061;82;21149;-55
2022/06/04 18:25:22;;;;;;;7.67;3.77;;;;;;;22.01;100.00;100296.61;1725405;81;20995;-55
2022/06/04 18:27:49;;;;;;;6.27;3.80;;;;;;;21.97;100.00;100291.05;1733070;81;21137;-56
2022/06/04 18:30:21;;;;;;;7.73;5.33;;;;;;;21.94;100.00;100288.91;1733242;81;21002;-64
2022/06/04 18:32:52;;;;;;;6.90;4.10;;;;;;;21.86;100.00;100284.87;1734053;81;21037;-55
2022/06/04 18:35:20;;;;;;;10.73;4.10;;;;;;;21.73;100.00;100290.63;1715640;82;21101;-55
2022/06/04 18:37:47;;;;;;;7.97;4.37;;;;;;;21.70;100.00;100287.69;1732967;81;20994;-57
2022/06/04 18:40:15;;;;;;;5.63;3.80;;;;;;;21.71;100.00;100287.98;1732747;82;21419;-61
2022/06/04 18:54:25;;;;;;;7.13;4.13;;;;;;;21.60;100.00;100279.94;1713168;81;21483;-56
2022/06/04 18:56:54;;;;;;;7.57;4.00;;;;;;;21.54;100.00;100280.16;1692257;83;21840;-60
2022/06/04 18:59:22;;;;;;;5.60;3.53;;;;;;;21.56;100.00;100284.16;1689311;83;21438;-56
2022/06/04 19:01:49;;;;;;;5.70;4.00;;;;;;;21.48;100.00;100280.66;1641981;86;21248;-64
2022/06/04 19:04:18;;;;;;;6.60;4.53;;;;;;;21.48;100.00;100283.31;1642597;85;21055;-57
2022/06/04 19:06:46;;;;;;;6.63;3.93;;;;;;;21.51;100.00;100281.45;1640458;85;21148;-56
2022/06/04 19:09:14;;;;;;;8.53;3.90;;;;;;;21.52;100.00;100281.75;1643007;85;21046;-56
2022/06/04 19:14:26;;;;;;;4.87;3.60;;;;;;;21.54;100.00;100284.13;1642637;85;21456;-61
2022/06/04 19:16:55;;;;;;;5.97;3.33;;;;;;;21.46;100.00;100274.80;1642438;85;21158;-55
2022/06/04 19:19:26;;;;;;;5.03;3.33;;;;;;;21.43;100.00;100280.60;1673614;83;21093;-56
2022/06/04 19:24:47;;;;;;;6.23;4.00;;;;;;;21.37;100.00;100282.44;1686148;84;21089;-56
2022/06/04 19:27:24;;;;;;;6.73;4.27;;;;;;;21.40;100.00;100275.01;1694105;84;21298;-58
2022/06/04 19:30:02;;;;;;;4.83;3.80;;;;;;;21.36;100.00;100283.99;1659342;85;21883;-66
2022/06/04 19:32:30;;;;;;;6.47;3.60;;;;;;;21.27;100.00;100278.87;1689538;84;21074;-56
2022/06/04 19:34:58;;;;;;;6.03;3.83;;;;;;;21.21;100.00;100277.21;1659651;86;21134;-58
2022/06/04 19:37:25;;;;;;;6.90;3.70;;;;;;;21.35;100.00;100283.73;1688625;84;22638;-57
2022/06/04 19:39:52;;;;;;;8.50;3.80;;;;;;;21.32;100.00;100287.64;1641824;85;21557;-63
2022/06/04 19:42:19;;;;;;;5.60;4.67;;;;;;;21.25;100.00;100287.59;1642729;85;21577;-56
2022/06/04 19:44:46;;;;;;;5.53;4.17;;;;;;;21.20;100.00;100287.02;1642632;85;21441;-56
2022/06/04 19:47:14;;;;;;;6.07;4.17;;;;;;;21.17;100.00;100286.73;1642366;86;20982;-58
2022/06/04 19:49:44;;;;;;;8.00;4.23;;;;;;;21.10;100.00;100283.78;1616707;86;21099;-56
2022/06/04 19:52:25;;;;;;;9.73;4.33;;;;;;;21.14;100.00;100283.55;1642632;85;21854;-57
2022/06/04 19:55:06;;;;;;;5.92;3.90;;;;;;;21.03;100.00;100287.69;1645118;85;21092;-57
2022/06/04 19:57:42;;;;;;;5.30;4.33;;;;;;;21.01;100.00;100279.97;1666762;84;21083;-61
2022/06/04 20:00:19;;;;;;;6.50;4.03;;;;;;;21.01;100.00;100276.52;1682935;84;21046;-57
2022/06/04 20:02:47;;;;;;;7.40;4.07;;;;;;;21.06;100.00;100276.55;1682539;84;21082;-58
2022/06/04 20:05:14;;;;;;;5.23;3.90;;;;;;;21.10;100.00;100277.65;1688358;84;21310;-59
2022/06/04 20:07:42;;;;;;;5.67;4.20;;;;;;;21.11;100.00;100281.39;1680191;84;21572;-57
2022/06/04 20:10:10;;;;;;;6.27;4.57;;;;;;;21.11;100.00;100278.74;1689023;84;21601;-67
2022/06/04 20:12:37;;;;;;;6.07;4.23;;;;;;;21.07;100.00;100284.27;1688862;84;21079;-57
2022/06/04 20:15:08;;;;;;;6.17;4.13;;;;;;;21.11;100.00;100279.27;1689417;83;20984;-66
2022/06/04 20:17:35;;;;;;;6.13;4.03;;;;;;;20.99;100.00;100287.91;1688912;84;21541;-57
2022/06/04 20:20:06;;;;;;;7.30;4.60;;;;;;;21.01;100.00;100288.45;1689341;84;20987;-57
2022/06/04 20:22:33;;;;;;;7.10;4.70;;;;;;;21.07;100.00;100284.80;1688740;84;21628;-59
2022/06/04 20:25:03;;;;;;;4.77;4.03;;;;;;;21.11;100.00;100295.97;1689398;83;21007;-57
2022/06/04 20:27:32;;;;;;;9.00;5.67;;;;;;;21.04;100.00;100288.75;1689009;84;21513;-60
2022/06/04 20:29:59;;;;;;;6.27;4.40;;;;;;;21.04;100.00;100292.72;1689763;84;21141;-58
2022/06/04 20:32:26;;;;;;;4.90;4.07;;;;;;;21.06;100.00;100291.95;1688593;84;21584;-59